Time;durP1;ratioP1;P1;durP2;ratioP2;P2;SDS_P1;SDS_P2;PMS_P1;PMS_P2;Temp;Humidity;BMP_temperature;BMP_pressure;BME280_temperature;BME280_humidity;BME280_pressure;Samples;Min_cycle;Max_cycle;Signal;HPM_P1;HPM_P2
2021/09/02 00:01:14;;;;;;;1999.90;999.90;;;;;;;;;;5102751;28;20518;-86
2021/09/02 00:03:41;;;;;;;1999.90;999.90;;;;;;;;;;5099851;28;20454;-86
2021/09/02 00:06:08;;;;;;;1999.90;999.90;;;;;;;;;;5098555;28;20460;-84
2021/09/02 00:08:36;;;;;;;1999.90;999.90;;;;;;;;;;5097591;28;20518;-86
2021/09/02 00:11:03;;;;;;;1999.90;999.90;;;;;;;;;;5096963;28;20431;-85
2021/09/02 00:13:30;;;;;;;1999.90;999.90;;;;;;;;;;5097672;28;20949;-85
2021/09/02 00:15:57;;;;;;;1999.90;999.90;;;;;;;;;;5096654;28;20487;-84
2021/09/02 00:18:25;;;;;;;1999.90;999.90;;;;;;;;;;5096323;28;20473;-85
2021/09/02 00:20:52;;;;;;;1999.90;999.90;;;;;;;;;;5095358;28;20951;-85
2021/09/02 00:23:19;;;;;;;1999.90;999.90;;;;;;;;;;5095495;28;20442;-85
2021/09/02 00:25:47;;;;;;;1999.90;999.90;;;;;;;;;;5096174;28;20537;-85
2021/09/02 00:28:15;;;;;;;1999.90;999.90;;;;;;;;;;5095954;28;20875;-85
2021/09/02 00:30:42;;;;;;;1999.90;999.90;;;;;;;;;;5096512;28;20456;-86
2021/09/02 00:33:15;;;;;;;1999.90;999.90;;;;;;;;;;5097381;28;20438;-85
2021/09/02 00:35:43;;;;;;;1999.90;999.90;;;;;;;;;;5096364;28;20490;-85
2021/09/02 00:38:11;;;;;;;1999.90;999.90;;;;;;;;;;5096569;28;20455;-85
2021/09/02 00:40:38;;;;;;;1999.90;999.90;;;;;;;;;;5097147;28;20458;-85
2021/09/02 00:43:05;;;;;;;1999.90;999.90;;;;;;;;;;5096972;28;20859;-85
2021/09/02 00:45:33;;;;;;;1999.90;999.90;;;;;;;;;;5096357;28;20446;-84
2021/09/02 00:48:00;;;;;;;1999.90;999.90;;;;;;;;;;5096516;28;20453;-84
2021/09/02 00:50:29;;;;;;;1999.90;999.90;;;;;;;;;;5096389;28;20946;-84
2021/09/02 00:52:57;;;;;;;1999.90;999.90;;;;;;;;;;5096392;28;20503;-85
2021/09/02 00:55:24;;;;;;;1999.90;999.90;;;;;;;;;;5096196;28;20978;-85
2021/09/02 00:57:51;;;;;;;1999.90;999.90;;;;;;;;;;5096595;28;20909;-85
2021/09/02 01:00:19;;;;;;;1999.90;999.90;;;;;;;;;;5100863;28;20465;-86
2021/09/02 01:02:47;;;;;;;1999.90;999.90;;;;;;;;;;5100636;28;20459;-85
2021/09/02 01:05:14;;;;;;;1999.90;999.90;;;;;;;;;;5101068;28;20432;-84
2021/09/02 01:07:42;;;;;;;1999.90;999.90;;;;;;;;;;5101030;28;20444;-85
2021/09/02 01:10:11;;;;;;;1999.90;999.90;;;;;;;;;;5101203;28;20863;-82
2021/09/02 01:12:40;;;;;;;1999.90;999.90;;;;;;;;;;5109483;28;20448;-85
2021/09/02 01:15:08;;;;;;;1999.90;999.90;;;;;;;;;;5098644;28;20482;-85
2021/09/02 01:17:35;;;;;;;1999.90;999.90;;;;;;;;;;5098114;28;20493;-85
2021/09/02 01:20:03;;;;;;;1999.90;999.90;;;;;;;;;;5098714;28;20870;-85
2021/09/02 01:22:30;;;;;;;1999.90;999.90;;;;;;;;;;5098004;28;21012;-83
2021/09/02 01:25:00;;;;;;;1999.90;999.90;;;;;;;;;;5097645;28;20447;-84
2021/09/02 01:27:28;;;;;;;1999.90;999.90;;;;;;;;;;5097481;28;20830;-85
2021/09/02 01:29:55;;;;;;;1999.90;999.90;;;;;;;;;;5097275;28;20463;-85
2021/09/02 01:32:22;;;;;;;1999.90;999.90;;;;;;;;;;5098313;28;20452;-84
2021/09/02 01:34:49;;;;;;;1999.90;999.90;;;;;;;;;;5098249;28;20454;-84
2021/09/02 01:37:16;;;;;;;1999.90;999.90;;;;;;;;;;5097144;28;20495;-85
2021/09/02 01:39:44;;;;;;;1999.90;999.90;;;;;;;;;;5097501;28;20474;-85
2021/09/02 01:42:15;;;;;;;1999.90;999.90;;;;;;;;;;5096748;28;20450;-84
2021/09/02 01:44:43;;;;;;;1999.90;999.90;;;;;;;;;;5097511;28;20451;-85
2021/09/02 01:47:23;;;;;;;1999.90;999.90;;;;;;;;;;5097573;28;20450;-84
2021/09/02 01:49:50;;;;;;;1999.90;999.90;;;;;;;;;;5097263;28;20822;-83
2021/09/02 01:52:17;;;;;;;1999.90;999.90;;;;;;;;;;5097261;28;20813;-84
2021/09/02 01:54:45;;;;;;;1999.90;999.90;;;;;;;;;;5096413;28;20444;-83
2021/09/02 01:57:12;;;;;;;1999.90;999.90;;;;;;;;;;5096609;28;20876;-84
2021/09/02 01:59:41;;;;;;;1999.90;999.90;;;;;;;;;;5097043;28;20473;-84
2021/09/02 02:02:08;;;;;;;1999.90;999.90;;;;;;;;;;5096669;28;20832;-84
2021/09/02 02:04:35;;;;;;;1999.90;999.90;;;;;;;;;;5096780;28;20443;-83
2021/09/02 02:07:02;;;;;;;1999.90;999.90;;;;;;;;;;5096350;28;20442;-84
2021/09/02 02:09:29;;;;;;;1999.90;999.90;;;;;;;;;;5094665;28;20999;-84
2021/09/02 02:11:56;;;;;;;1999.90;999.90;;;;;;;;;;5096185;28;20843;-84
2021/09/02 02:14:24;;;;;;;1999.90;999.90;;;;;;;;;;5096428;28;20454;-84
2021/09/02 02:16:52;;;;;;;1999.90;999.90;;;;;;;;;;5095759;28;20521;-84
2021/09/02 02:19:19;;;;;;;1999.90;999.90;;;;;;;;;;5096088;28;20469;-84
2021/09/02 02:21:47;;;;;;;1999.90;999.90;;;;;;;;;;5095909;28;20450;-83
2021/09/02 02:24:14;;;;;;;1999.90;999.90;;;;;;;;;;5095891;28;20968;-83
2021/09/02 02:26:41;;;;;;;1999.90;999.90;;;;;;;;;;5095772;28;20448;-84
2021/09/02 02:29:09;;;;;;;1999.90;999.90;;;;;;;;;;5095661;28;20469;-84
2021/09/02 02:31:36;;;;;;;1999.90;999.90;;;;;;;;;;5095788;28;20460;-84
2021/09/02 02:34:05;;;;;;;1999.90;999.90;;;;;;;;;;5095587;28;20442;-84
2021/09/02 02:36:33;;;;;;;1999.90;999.90;;;;;;;;;;5095231;28;20507;-83
2021/09/02 02:39:00;;;;;;;1999.90;999.90;;;;;;;;;;5095397;28;20463;-83
2021/09/02 02:41:28;;;;;;;1999.90;999.90;;;;;;;;;;5095797;28;20541;-83
2021/09/02 02:43:55;;;;;;;1999.90;999.90;;;;;;;;;;5095448;28;20459;-83
2021/09/02 02:46:22;;;;;;;1999.90;999.90;;;;;;;;;;5095224;28;20443;-82
2021/09/02 02:48:49;;;;;;;1999.90;999.90;;;;;;;;;;5094936;28;20489;-83
2021/09/02 02:51:17;;;;;;;1999.90;999.90;;;;;;;;;;5095262;28;20446;-84
2021/09/02 02:53:44;;;;;;;1999.90;999.90;;;;;;;;;;5095578;28;20967;-81
2021/09/02 02:56:11;;;;;;;1999.90;999.90;;;;;;;;;;5095184;28;20484;-84
2021/09/02 02:58:39;;;;;;;1999.90;999.90;;;;;;;;;;5095797;28;21001;-83
2021/09/02 03:01:06;;;;;;;1999.90;999.90;;;;;;;;;;5095711;28;20449;-83
2021/09/02 03:03:33;;;;;;;1999.90;999.90;;;;;;;;;;5095285;28;20461;-82
2021/09/02 03:06:00;;;;;;;1999.90;999.90;;;;;;;;;;5094897;28;20933;-82
2021/09/02 03:08:28;;;;;;;1999.90;999.90;;;;;;;;;;5094591;28;20482;-82
2021/09/02 03:10:56;;;;;;;1999.90;999.90;;;;;;;;;;5095322;28;20446;-83
2021/09/02 03:13:23;;;;;;;1999.90;999.90;;;;;;;;;;5095190;28;20833;-82
2021/09/02 03:15:50;;;;;;;1999.90;999.90;;;;;;;;;;5094827;28;20451;-83
2021/09/02 03:18:17;;;;;;;1999.90;999.90;;;;;;;;;;5094476;28;20499;-83
2021/09/02 03:20:44;;;;;;;1999.90;999.90;;;;;;;;;;5094820;28;20456;-83
2021/09/02 03:23:11;;;;;;;1999.90;999.90;;;;;;;;;;5095172;28;20460;-83
2021/09/02 03:25:40;;;;;;;1999.90;999.90;;;;;;;;;;5095701;28;20461;-83
2021/09/02 03:28:07;;;;;;;1999.90;999.90;;;;;;;;;;5095141;28;20450;-84
2021/09/02 03:30:34;;;;;;;1999.90;999.90;;;;;;;;;;5095527;28;20450;-82
2021/09/02 03:33:01;;;;;;;1999.90;999.90;;;;;;;;;;5095289;28;20449;-83
2021/09/02 03:35:28;;;;;;;1999.90;999.90;;;;;;;;;;5095449;28;20461;-82
2021/09/02 03:37:55;;;;;;;1999.90;999.90;;;;;;;;;;5095632;28;20491;-83
2021/09/02 03:40:22;;;;;;;1999.90;999.90;;;;;;;;;;5096118;28;20454;-82
2021/09/02 03:42:51;;;;;;;1999.90;999.90;;;;;;;;;;5097469;28;20442;-83
2021/09/02 03:45:18;;;;;;;1999.90;999.90;;;;;;;;;;5097898;28;20464;-83
2021/09/02 03:47:47;;;;;;;1999.90;999.90;;;;;;;;;;5097718;28;20444;-81
2021/09/02 03:50:14;;;;;;;1999.90;999.90;;;;;;;;;;5096597;28;20573;-82
2021/09/02 03:52:41;;;;;;;1999.90;999.90;;;;;;;;;;5102358;28;20447;-84
2021/09/02 03:55:09;;;;;;;1999.90;999.90;;;;;;;;;;5098222;28;20442;-80
2021/09/02 03:57:36;;;;;;;1999.90;999.90;;;;;;;;;;5098609;28;21009;-83
2021/09/02 04:00:06;;;;;;;1999.90;999.90;;;;;;;;;;5099156;28;20484;-85
2021/09/02 04:02:33;;;;;;;1999.90;999.90;;;;;;;;;;5097309;28;20852;-82
2021/09/02 04:05:01;;;;;;;1999.90;999.90;;;;;;;;;;5096745;28;20443;-84
2021/09/02 04:07:28;;;;;;;1999.90;999.90;;;;;;;;;;5099061;28;20450;-83
2021/09/02 04:09:55;;;;;;;1999.90;999.90;;;;;;;;;;5098528;28;20474;-82
2021/09/02 04:12:22;;;;;;;1999.90;999.90;;;;;;;;;;5097377;28;20453;-83
2021/09/02 04:14:49;;;;;;;1999.90;999.90;;;;;;;;;;5097915;28;20450;-83
2021/09/02 04:17:18;;;;;;;1999.90;999.90;;;;;;;;;;5098213;28;20489;-84
2021/09/02 04:19:45;;;;;;;1999.90;999.90;;;;;;;;;;5098344;28;20492;-83
2021/09/02 04:22:12;;;;;;;1999.90;999.90;;;;;;;;;;5098569;28;20460;-83
2021/09/02 04:24:39;;;;;;;1999.90;999.90;;;;;;;;;;5098644;28;20450;-83
2021/09/02 04:27:07;;;;;;;1999.90;999.90;;;;;;;;;;5098672;28;20443;-83
2021/09/02 04:29:35;;;;;;;1999.90;999.90;;;;;;;;;;5098823;28;20470;-81
2021/09/02 04:32:02;;;;;;;1999.90;999.90;;;;;;;;;;5098369;28;20963;-82
2021/09/02 04:34:30;;;;;;;1999.90;999.90;;;;;;;;;;5097688;28;20455;-83
2021/09/02 04:36:58;;;;;;;1999.90;999.90;;;;;;;;;;5098249;28;20485;-84
2021/09/02 04:39:25;;;;;;;1999.90;999.90;;;;;;;;;;5098041;28;20466;-83
2021/09/02 04:41:52;;;;;;;1999.90;999.90;;;;;;;;;;5098512;28;20445;-83
2021/09/02 04:44:19;;;;;;;1999.90;999.90;;;;;;;;;;5098580;28;20452;-83
2021/09/02 04:46:46;;;;;;;1999.90;999.90;;;;;;;;;;5097631;28;20442;-83
2021/09/02 04:49:13;;;;;;;1999.90;999.90;;;;;;;;;;5097189;28;20475;-82
2021/09/02 04:51:42;;;;;;;1999.90;999.90;;;;;;;;;;5097470;28;20447;-83
2021/09/02 04:54:09;;;;;;;1999.90;999.90;;;;;;;;;;5097033;28;20452;-82
2021/09/02 04:56:36;;;;;;;1999.90;999.90;;;;;;;;;;5096557;28;20459;-83
2021/09/02 04:59:04;;;;;;;1999.90;999.90;;;;;;;;;;5097390;28;20540;-82
2021/09/02 05:01:31;;;;;;;1999.90;999.90;;;;;;;;;;5097788;28;20473;-83
2021/09/02 05:03:58;;;;;;;1999.90;999.90;;;;;;;;;;5097861;28;20451;-82
2021/09/02 05:06:25;;;;;;;1999.90;999.90;;;;;;;;;;5097097;28;20450;-83
2021/09/02 05:08:53;;;;;;;1999.90;999.90;;;;;;;;;;5119558;22;20515;-83
2021/09/02 05:11:20;;;;;;;1999.90;999.90;;;;;;;;;;5092389;28;20725;-80
2021/09/02 05:13:47;;;;;;;1999.90;999.90;;;;;;;;;;5092973;28;20825;-81
2021/09/02 05:16:15;;;;;;;1999.90;999.90;;;;;;;;;;5092466;28;20447;-81
2021/09/02 05:18:42;;;;;;;1999.90;999.90;;;;;;;;;;5090945;28;20497;-83
2021/09/02 05:21:09;;;;;;;1999.90;999.90;;;;;;;;;;5072613;28;20469;-83
2021/09/02 05:23:36;;;;;;;1999.90;999.90;;;;;;;;;;5073230;28;20447;-83
2021/09/02 05:26:04;;;;;;;1999.90;999.90;;;;;;;;;;5073203;28;20445;-83
2021/09/02 05:28:31;;;;;;;1999.90;999.90;;;;;;;;;;5073017;28;20455;-86
2021/09/02 05:30:59;;;;;;;1999.90;999.90;;;;;;;;;;5074598;28;20447;-84
2021/09/02 05:33:26;;;;;;;1999.90;999.90;;;;;;;;;;5074473;28;20467;-86
2021/09/02 05:35:53;;;;;;;1999.90;999.90;;;;;;;;;;5074581;28;20456;-85
2021/09/02 05:38:20;;;;;;;1999.90;999.90;;;;;;;;;;5074100;28;20482;-84
2021/09/02 05:40:47;;;;;;;1999.90;999.90;;;;;;;;;;5075091;28;20496;-85
2021/09/02 05:43:16;;;;;;;1999.90;999.90;;;;;;;;;;5074923;28;20509;-86
2021/09/02 05:45:43;;;;;;;1999.90;999.90;;;;;;;;;;5078795;28;20451;-85
2021/09/02 05:48:10;;;;;;;1999.90;999.90;;;;;;;;;;5078808;28;20448;-85
2021/09/02 05:50:37;;;;;;;1999.90;999.90;;;;;;;;;;5081965;28;20474;-82
2021/09/02 05:53:04;;;;;;;1999.90;999.90;;;;;;;;;;5090281;28;20536;-82
2021/09/02 05:55:31;;;;;;;1999.90;999.90;;;;;;;;;;5077082;28;20964;-82
2021/09/02 05:57:58;;;;;;;1999.90;999.90;;;;;;;;;;5080391;28;20481;-83
2021/09/02 06:00:27;;;;;;;1999.90;999.90;;;;;;;;;;5088699;28;20463;-84
2021/09/02 06:02:54;;;;;;;1999.90;999.90;;;;;;;;;;5081661;28;20934;-83
2021/09/02 06:05:21;;;;;;;1999.90;999.90;;;;;;;;;;5081542;28;20516;-82
2021/09/02 06:07:48;;;;;;;1999.90;999.90;;;;;;;;;;5080631;28;20455;-83
2021/09/02 06:10:15;;;;;;;1999.90;999.90;;;;;;;;;;5081819;28;20485;-83
2021/09/02 06:12:42;;;;;;;1999.90;999.90;;;;;;;;;;5080236;28;20451;-83
2021/09/02 06:15:11;;;;;;;1999.90;999.90;;;;;;;;;;5094590;28;20912;-83
2021/09/02 06:17:39;;;;;;;1999.90;999.90;;;;;;;;;;5096370;28;20484;-85
2021/09/02 06:20:06;;;;;;;1999.90;999.90;;;;;;;;;;5096747;28;20483;-83
2021/09/02 06:22:34;;;;;;;1999.90;999.90;;;;;;;;;;5095737;28;20846;-81
2021/09/02 06:25:01;;;;;;;1999.90;999.90;;;;;;;;;;5091410;28;20447;-82
2021/09/02 06:27:28;;;;;;;1999.90;999.90;;;;;;;;;;5074606;28;20440;-83
2021/09/02 06:29:55;;;;;;;1999.90;999.90;;;;;;;;;;5074678;28;20470;-82
2021/09/02 06:32:22;;;;;;;1999.90;999.90;;;;;;;;;;5074223;28;20447;-82
2021/09/02 06:34:51;;;;;;;1999.90;999.90;;;;;;;;;;5074668;28;20515;-82
2021/09/02 06:37:18;;;;;;;1999.90;999.90;;;;;;;;;;5074160;28;20483;-82
2021/09/02 06:39:45;;;;;;;1999.90;999.90;;;;;;;;;;5075918;28;20474;-81
2021/09/02 06:42:12;;;;;;;1999.90;999.90;;;;;;;;;;5074769;28;20451;-81
2021/09/02 06:44:39;;;;;;;1999.90;999.90;;;;;;;;;;5098849;28;20448;-82
2021/09/02 06:47:06;;;;;;;1999.90;999.90;;;;;;;;;;5084781;28;20516;-82
2021/09/02 06:49:33;;;;;;;1999.90;999.90;;;;;;;;;;5088142;28;20527;-83
2021/09/02 06:52:02;;;;;;;1999.90;999.90;;;;;;;;;;5096369;28;20450;-85
2021/09/02 06:54:29;;;;;;;1999.90;999.90;;;;;;;;;;5087920;28;20447;-80
2021/09/02 06:56:56;;;;;;;1999.90;999.90;;;;;;;;;;5083770;28;20466;-82
2021/09/02 06:59:24;;;;;;;1999.90;999.90;;;;;;;;;;5064097;28;20472;-82
2021/09/02 07:01:51;;;;;;;1999.90;999.90;;;;;;;;;;5083859;28;20447;-82
2021/09/02 07:04:18;;;;;;;1999.90;999.90;;;;;;;;;;5084773;28;20443;-83
2021/09/02 07:06:45;;;;;;;1999.90;999.90;;;;;;;;;;5084127;28;20905;-82
2021/09/02 07:09:13;;;;;;;1999.90;999.90;;;;;;;;;;5084036;28;20472;-82
2021/09/02 07:11:41;;;;;;;1999.90;999.90;;;;;;;;;;5083281;28;20544;-83
2021/09/02 07:14:08;;;;;;;1999.90;999.90;;;;;;;;;;5083743;28;20462;-83
2021/09/02 07:16:35;;;;;;;1999.90;999.90;;;;;;;;;;5083939;28;20461;-81
2021/09/02 07:19:02;;;;;;;1999.90;999.90;;;;;;;;;;5084409;28;20491;-83
2021/09/02 07:21:29;;;;;;;1999.90;999.90;;;;;;;;;;5083567;28;20454;-83
2021/09/02 07:23:56;;;;;;;1999.90;999.90;;;;;;;;;;5085491;28;20849;-83
2021/09/02 07:26:25;;;;;;;1999.90;999.90;;;;;;;;;;5084477;28;20526;-82
2021/09/02 07:28:52;;;;;;;1999.90;999.90;;;;;;;;;;5084748;28;20833;-84
2021/09/02 07:31:19;;;;;;;1999.90;999.90;;;;;;;;;;5080418;28;20447;-81
2021/09/02 07:33:46;;;;;;;1999.90;999.90;;;;;;;;;;5082608;28;20450;-82
2021/09/02 07:36:13;;;;;;;1999.90;999.90;;;;;;;;;;5085696;28;20459;-82
2021/09/02 07:38:40;;;;;;;1999.90;999.90;;;;;;;;;;5086904;28;20841;-83
2021/09/02 07:41:07;;;;;;;1999.90;999.90;;;;;;;;;;5084593;28;20447;-82
2021/09/02 07:43:36;;;;;;;1999.90;999.90;;;;;;;;;;5086809;28;20509;-82
2021/09/02 07:46:03;;;;;;;1999.90;999.90;;;;;;;;;;5082290;28;20463;-82
2021/09/02 07:48:30;;;;;;;1999.90;999.90;;;;;;;;;;5092367;28;20445;-82
2021/09/02 07:50:57;;;;;;;1999.90;999.90;;;;;;;;;;5075512;28;20462;-81
2021/09/02 07:53:26;;;;;;;1999.90;999.90;;;;;;;;;;5081405;28;20439;-81
2021/09/02 07:55:53;;;;;;;1999.90;999.90;;;;;;;;;;5082191;28;20513;-81
2021/09/02 07:58:21;;;;;;;1999.90;999.90;;;;;;;;;;5082916;28;21092;-82
2021/09/02 08:00:50;;;;;;;1999.90;999.90;;;;;;;;;;5082873;28;20469;-81
2021/09/02 08:03:17;;;;;;;1999.90;999.90;;;;;;;;;;5078713;28;20447;-81
2021/09/02 08:05:44;;;;;;;1999.90;999.90;;;;;;;;;;5080187;28;20478;-82
2021/09/02 08:08:16;;;;;;;1999.90;999.90;;;;;;;;;;5081190;28;20532;-82
2021/09/02 08:10:43;;;;;;;1999.90;999.90;;;;;;;;;;5081742;28;20485;-82
2021/09/02 08:13:10;;;;;;;1999.90;999.90;;;;;;;;;;5081742;28;20491;-81
2021/09/02 08:15:37;;;;;;;1999.90;999.90;;;;;;;;;;5081454;28;20536;-82
2021/09/02 08:18:06;;;;;;;1999.90;999.90;;;;;;;;;;5079156;28;20918;-82
2021/09/02 08:20:33;;;;;;;1999.90;999.90;;;;;;;;;;5081225;28;20481;-82
2021/09/02 08:23:00;;;;;;;1999.90;999.90;;;;;;;;;;5082614;28;20445;-84
2021/09/02 08:25:28;;;;;;;1999.90;999.90;;;;;;;;;;5082814;28;20450;-83
2021/09/02 08:27:55;;;;;;;1999.90;999.90;;;;;;;;;;5080062;28;20450;-81
2021/09/02 08:30:24;;;;;;;1999.90;999.90;;;;;;;;;;5081713;28;20467;-83
2021/09/02 08:32:51;;;;;;;1999.90;999.90;;;;;;;;;;5081900;28;20459;-82
2021/09/02 08:35:22;;;;;;;1999.90;999.90;;;;;;;;;;5082741;28;20453;-82
2021/09/02 08:37:49;;;;;;;1999.90;999.90;;;;;;;;;;5079592;28;20451;-83
2021/09/02 08:40:17;;;;;;;1999.90;999.90;;;;;;;;;;5080594;28;20536;-83
2021/09/02 08:42:45;;;;;;;1999.90;999.90;;;;;;;;;;5075636;28;20448;-82
2021/09/02 08:45:12;;;;;;;1999.90;999.90;;;;;;;;;;5073043;28;20538;-81
2021/09/02 08:47:39;;;;;;;1999.90;999.90;;;;;;;;;;5073347;28;21006;-80
2021/09/02 08:50:07;;;;;;;1999.90;999.90;;;;;;;;;;5073514;28;20485;-81
2021/09/02 08:52:36;;;;;;;1999.90;999.90;;;;;;;;;;5075035;28;20455;-81
2021/09/02 08:55:04;;;;;;;1999.90;999.90;;;;;;;;;;5075237;28;20451;-83
2021/09/02 08:57:32;;;;;;;1999.90;999.90;;;;;;;;;;5077852;28;20461;-81
2021/09/02 08:59:59;;;;;;;1999.90;999.90;;;;;;;;;;5085169;28;20504;-82
2021/09/02 09:02:27;;;;;;;1999.90;999.90;;;;;;;;;;5081768;28;20447;-82
2021/09/02 09:05:01;;;;;;;1999.90;999.90;;;;;;;;;;5079100;28;20809;-81
2021/09/02 09:07:29;;;;;;;1999.90;999.90;;;;;;;;;;5077716;28;20451;-81
2021/09/02 09:09:58;;;;;;;1999.90;999.90;;;;;;;;;;5077338;28;21016;-81
2021/09/02 09:12:35;;;;;;;1999.90;999.90;;;;;;;;;;5077771;28;20443;-81
2021/09/02 09:15:03;;;;;;;1999.90;999.90;;;;;;;;;;5076816;28;20442;-82
2021/09/02 09:17:30;;;;;;;1999.90;999.90;;;;;;;;;;5080497;28;20457;-83
2021/09/02 09:19:58;;;;;;;1999.90;999.90;;;;;;;;;;5078908;28;20509;-81
2021/09/02 09:22:26;;;;;;;1999.90;999.90;;;;;;;;;;5079324;28;20495;-81
2021/09/02 09:24:54;;;;;;;1999.90;999.90;;;;;;;;;;5078796;28;20446;-81
2021/09/02 09:27:24;;;;;;;1999.90;999.90;;;;;;;;;;5078410;28;20450;-80
2021/09/02 09:30:12;;;;;;;1999.90;999.90;;;;;;;;;;5078159;28;20479;-80
2021/09/02 09:32:40;;;;;;;1999.90;999.90;;;;;;;;;;5073168;28;20469;-79
2021/09/02 09:35:09;;;;;;;1999.90;999.90;;;;;;;;;;5077701;28;20449;-80
2021/09/02 09:37:36;;;;;;;1999.90;999.90;;;;;;;;;;5076899;28;20446;-80
2021/09/02 09:40:17;;;;;;;1999.90;999.90;;;;;;;;;;5077231;28;20918;-80
2021/09/02 09:42:59;;;;;;;1999.90;999.90;;;;;;;;;;5078361;28;20458;-81
2021/09/02 09:45:33;;;;;;;1999.90;999.90;;;;;;;;;;5078752;28;20446;-80
2021/09/02 09:48:00;;;;;;;1999.90;999.90;;;;;;;;;;5079156;28;20451;-80
2021/09/02 09:50:27;;;;;;;1999.90;999.90;;;;;;;;;;5082254;28;20467;-80
2021/09/02 09:52:54;;;;;;;1999.90;999.90;;;;;;;;;;5076013;28;20454;-81
2021/09/02 09:55:21;;;;;;;1999.90;999.90;;;;;;;;;;5076012;28;20450;-81
2021/09/02 09:57:49;;;;;;;1999.90;999.90;;;;;;;;;;5074940;28;20443;-80
2021/09/02 10:00:19;;;;;;;1999.90;999.90;;;;;;;;;;5074955;28;20497;-80
2021/09/02 10:02:47;;;;;;;1999.90;999.90;;;;;;;;;;5074692;28;20447;-81
2021/09/02 10:05:16;;;;;;;1999.90;999.90;;;;;;;;;;5074876;28;20453;-81
2021/09/02 10:07:44;;;;;;;1999.90;999.90;;;;;;;;;;5078276;28;20451;-81
2021/09/02 10:10:13;;;;;;;1999.90;999.90;;;;;;;;;;5075884;28;20466;-81
2021/09/02 10:12:42;;;;;;;1999.90;999.90;;;;;;;;;;5085382;28;20479;-82
2021/09/02 10:15:10;;;;;;;1999.90;999.90;;;;;;;;;;5091362;28;20451;-80
2021/09/02 10:17:40;;;;;;;1999.90;999.90;;;;;;;;;;5071439;28;20463;-79
2021/09/02 10:20:11;;;;;;;1999.90;999.90;;;;;;;;;;5077159;28;20492;-80
2021/09/02 10:22:38;;;;;;;1999.90;999.90;;;;;;;;;;5077272;28;20479;-82
2021/09/02 10:25:25;;;;;;;1999.90;999.90;;;;;;;;;;5076348;28;20455;-82
2021/09/02 10:27:59;;;;;;;1999.90;999.90;;;;;;;;;;5078522;28;20477;-81
2021/09/02 10:30:26;;;;;;;1999.90;999.90;;;;;;;;;;5076566;28;20838;-84
2021/09/02 10:32:56;;;;;;;1999.90;999.90;;;;;;;;;;5077944;28;20472;-81
2021/09/02 10:35:33;;;;;;;1999.90;999.90;;;;;;;;;;5077821;28;20439;-82
2021/09/02 10:38:01;;;;;;;1999.90;999.90;;;;;;;;;;5078132;28;20449;-82
2021/09/02 10:40:46;;;;;;;1999.90;999.90;;;;;;;;;;5075946;28;20486;-82
2021/09/02 10:43:13;;;;;;;1999.90;999.90;;;;;;;;;;5075503;28;20454;-81
2021/09/02 10:45:42;;;;;;;1999.90;999.90;;;;;;;;;;5074275;28;20448;-84
2021/09/02 10:48:17;;;;;;;1999.90;999.90;;;;;;;;;;5073953;28;20843;-81
2021/09/02 10:50:47;;;;;;;1999.90;999.90;;;;;;;;;;5077724;28;20467;-84
2021/09/02 10:53:15;;;;;;;1999.90;999.90;;;;;;;;;;5077189;28;20508;-81
2021/09/02 10:55:49;;;;;;;1999.90;999.90;;;;;;;;;;5061880;28;20437;-81
2021/09/02 10:58:31;;;;;;;1999.90;999.90;;;;;;;;;;5077297;28;20526;-82
2021/09/02 11:00:58;;;;;;;1999.90;999.90;;;;;;;;;;5073282;28;20466;-81
2021/09/02 11:03:27;;;;;;;1999.90;999.90;;;;;;;;;;5076194;28;20542;-82
2021/09/02 11:05:56;;;;;;;1999.90;999.90;;;;;;;;;;5077332;28;20935;-81
2021/09/02 11:08:32;;;;;;;1999.90;999.90;;;;;;;;;;5077538;28;20443;-81
2021/09/02 11:11:09;;;;;;;1999.90;999.90;;;;;;;;;;5086716;22;21076;-84
2021/09/02 11:13:36;;;;;;;1999.90;999.90;;;;;;;;;;5078988;28;20450;-83
2021/09/02 11:16:09;;;;;;;1999.90;999.90;;;;;;;;;;5062848;28;20451;-85
2021/09/02 11:18:44;;;;;;;1999.90;999.90;;;;;;;;;;5075000;28;20463;-84
2021/09/02 11:21:12;;;;;;;1999.90;999.90;;;;;;;;;;5048626;28;20471;-85
2021/09/02 11:23:40;;;;;;;1999.90;999.90;;;;;;;;;;5047955;28;20463;-85
2021/09/02 11:26:08;;;;;;;1999.90;999.90;;;;;;;;;;5052490;28;20444;-83
2021/09/02 11:28:47;;;;;;;1999.90;999.90;;;;;;;;;;5041749;28;20816;-84
2021/09/02 11:31:15;;;;;;;1999.90;999.90;;;;;;;;;;5051269;28;20958;-84
2021/09/02 11:33:47;;;;;;;1999.90;999.90;;;;;;;;;;5049389;28;20940;-84
2021/09/02 11:36:14;;;;;;;1999.90;999.90;;;;;;;;;;5042746;28;20979;-84
2021/09/02 11:38:42;;;;;;;1999.90;999.90;;;;;;;;;;5054940;28;20455;-85
2021/09/02 11:41:16;;;;;;;1999.90;999.90;;;;;;;;;;5045274;28;20468;-83
2021/09/02 11:43:43;;;;;;;1999.90;999.90;;;;;;;;;;5059104;28;20458;-84
2021/09/02 11:46:11;;;;;;;1999.90;999.90;;;;;;;;;;5050890;28;20527;-84
2021/09/02 11:48:56;;;;;;;1999.90;999.90;;;;;;;;;;5047407;28;20455;-84
2021/09/02 11:51:25;;;;;;;1999.90;999.90;;;;;;;;;;5056934;28;20542;-85
2021/09/02 11:54:03;;;;;;;1999.90;999.90;;;;;;;;;;5056934;28;20446;-84
2021/09/02 11:56:31;;;;;;;1999.90;999.90;;;;;;;;;;5056208;28;20581;-85
2021/09/02 11:58:58;;;;;;;1999.90;999.90;;;;;;;;;;5044554;28;20580;-84
2021/09/02 12:01:26;;;;;;;1999.90;999.90;;;;;;;;;;5040161;28;20560;-84
2021/09/02 12:03:53;;;;;;;1999.90;999.90;;;;;;;;;;5037800;28;20453;-84
2021/09/02 12:06:24;;;;;;;1999.90;999.90;;;;;;;;;;5035299;28;20978;-83
2021/09/02 12:08:53;;;;;;;1999.90;999.90;;;;;;;;;;5038266;28;20965;-84
2021/09/02 12:11:20;;;;;;;1999.90;999.90;;;;;;;;;;5031780;28;20469;-84
2021/09/02 12:13:47;;;;;;;1999.90;999.90;;;;;;;;;;5033246;28;20460;-84
2021/09/02 12:16:16;;;;;;;1999.90;999.90;;;;;;;;;;5027465;28;20461;-84
2021/09/02 12:18:45;;;;;;;1999.90;999.90;;;;;;;;;;5027648;28;20454;-85
2021/09/02 12:21:14;;;;;;;1999.90;999.90;;;;;;;;;;5030037;28;20476;-84
2021/09/02 12:23:47;;;;;;;1999.90;999.90;;;;;;;;;;5038476;28;20960;-84
2021/09/02 12:26:14;;;;;;;1999.90;999.90;;;;;;;;;;5046861;28;20444;-85
2021/09/02 12:28:42;;;;;;;1999.90;999.90;;;;;;;;;;5045598;28;20639;-84
2021/09/02 12:31:16;;;;;;;1999.90;999.90;;;;;;;;;;5054465;28;20477;-83
2021/09/02 12:33:54;;;;;;;1999.90;999.90;;;;;;;;;;5026420;28;20890;-84
2021/09/02 12:36:21;;;;;;;1999.90;999.90;;;;;;;;;;5050019;28;20431;-84
2021/09/02 12:38:50;;;;;;;1999.90;999.90;;;;;;;;;;5041711;28;20466;-84
2021/09/02 12:41:18;;;;;;;1999.90;999.90;;;;;;;;;;5048770;28;20479;-84
2021/09/02 12:44:00;;;;;;;1999.90;999.90;;;;;;;;;;5049368;28;20448;-84
2021/09/02 12:46:27;;;;;;;1999.90;999.90;;;;;;;;;;5040228;28;20535;-85
2021/09/02 12:49:05;;;;;;;1999.90;999.90;;;;;;;;;;5050788;28;20944;-84
2021/09/02 12:51:32;;;;;;;1999.90;999.90;;;;;;;;;;5041956;28;20447;-84
2021/09/02 12:54:00;;;;;;;1999.90;999.90;;;;;;;;;;5036780;28;20511;-84
2021/09/02 12:56:34;;;;;;;1999.90;999.90;;;;;;;;;;5045507;28;20441;-84
2021/09/02 12:59:01;;;;;;;1999.90;999.90;;;;;;;;;;5051884;28;20443;-84
2021/09/02 13:01:28;;;;;;;1999.90;999.90;;;;;;;;;;5040442;28;20553;-85
2021/09/02 13:03:55;;;;;;;1999.90;999.90;;;;;;;;;;5050190;28;20441;-84
2021/09/02 13:06:22;;;;;;;1999.90;999.90;;;;;;;;;;5037860;28;20448;-85
2021/09/02 13:08:50;;;;;;;1999.90;999.90;;;;;;;;;;5043317;28;20464;-84
2021/09/02 13:11:18;;;;;;;1999.90;999.90;;;;;;;;;;5053417;28;20486;-84
2021/09/02 13:13:45;;;;;;;1999.90;999.90;;;;;;;;;;5031748;28;20482;-84
2021/09/02 13:16:12;;;;;;;1999.90;999.90;;;;;;;;;;5047540;28;20449;-83
2021/09/02 13:18:39;;;;;;;1999.90;999.90;;;;;;;;;;5031129;28;20453;-83
2021/09/02 13:21:06;;;;;;;1999.90;999.90;;;;;;;;;;5027697;28;20490;-84
2021/09/02 13:23:33;;;;;;;1999.90;999.90;;;;;;;;;;5028905;28;20440;-83
2021/09/02 13:26:01;;;;;;;1999.90;999.90;;;;;;;;;;5027560;28;20442;-84
2021/09/02 13:28:29;;;;;;;1999.90;999.90;;;;;;;;;;5034244;28;20547;-84
2021/09/02 13:30:56;;;;;;;1999.90;999.90;;;;;;;;;;5039091;28;20464;-83
2021/09/02 13:33:23;;;;;;;1999.90;999.90;;;;;;;;;;5046202;28;20444;-83
2021/09/02 13:35:50;;;;;;;1999.90;999.90;;;;;;;;;;5044695;28;20440;-84
2021/09/02 13:38:17;;;;;;;1999.90;999.90;;;;;;;;;;5037305;28;20448;-83
2021/09/02 13:40:45;;;;;;;1999.90;999.90;;;;;;;;;;5036999;28;20488;-83
2021/09/02 13:43:12;;;;;;;1999.90;999.90;;;;;;;;;;5037002;28;20525;-83
2021/09/02 13:45:40;;;;;;;1999.90;999.90;;;;;;;;;;5036649;28;20452;-85
2021/09/02 13:48:07;;;;;;;1999.90;999.90;;;;;;;;;;5036850;28;20480;-84